This is the latest recevied weather packets stored in our database for station/object OE3FJB-25. If no packets are shown the sender has not sent any weather packets the latest 10 day(s).
| Time | Temp. | Humidity | Pressure | Rain* | Wind** | Luminosity | Snow |
|---|---|---|---|---|---|---|---|
| 1777728072 | 21.11° C | 25% | 1025 hPa | - | - | - | - |
| 1777727474 | 21.11° C | 25% | 1025.1 hPa | - | - | - | - |
| 1777726875 | 21.11° C | 25% | 1025.2 hPa | - | - | - | - |
| 1777726276 | 20.56° C | 25% | 1025.3 hPa | - | - | - | - |
| 1777725678 | 21.11° C | 25% | 1025.3 hPa | - | - | - | - |
| 1777725079 | 21.11° C | 25% | 1025.5 hPa | - | - | - | - |
| 1777724481 | 21.11° C | 26% | 1025.6 hPa | - | - | - | - |
| 1777723882 | 21.11° C | 25% | 1025.8 hPa | - | - | - | - |
| 1777723284 | 21.11° C | 26% | 1025.8 hPa | - | - | - | - |
| 1777722685 | 21.67° C | 27% | 1025.9 hPa | - | - | - | - |
| 1777722086 | 22.22° C | 26% | 1026 hPa | - | - | - | - |
| 1777721488 | 23.33° C | 26% | 1026 hPa | - | - | - | - |
| 1777720889 | 23.33° C | 26% | 1026.1 hPa | - | - | - | - |
| 1777720290 | 23.33° C | 27% | 1026.2 hPa | - | - | - | - |
| 1777719692 | 23.89° C | 28% | 1026.3 hPa | - | - | - | - |
| 1777719093 | 22.22° C | 31% | 1026.5 hPa | - | - | - | - |
| 1777718495 | 20.56° C | 32% | 1026.4 hPa | - | - | - | - |
| 1777717896 | 20.56° C | 33% | 1026.6 hPa | - | - | - | - |
| 1777717298 | 20° C | 33% | 1026.7 hPa | - | - | - | - |
| 1777716699 | 21.67° C | 33% | 1026.8 hPa | - | - | - | - |
| 1777716101 | 20.56° C | 35% | 1026.9 hPa | - | - | - | - |
| 1777715502 | 21.11° C | 36% | 1026.9 hPa | - | - | - | - |
| 1777714903 | 21.11° C | 39% | 1027.1 hPa | - | - | - | - |
| 1777714305 | 19.44° C | 41% | 1027.1 hPa | - | - | - | - |
| 1777713706 | 21.11° C | 39% | 1027.2 hPa | - | - | - | - |
* Rain since midnight (hover to see other rain measurements)
** Current wind speed in m/s (hover to see current wind gust speed)